Time;durP1;ratioP1;P1;durP2;ratioP2;P2;SDS_P1;SDS_P2;PMS_P1;PMS_P2;Temp;Humidity;BMP_temperature;BMP_pressure;BME280_temperature;BME280_humidity;BME280_pressure;Samples;Min_cycle;Max_cycle;Signal;HPM_P1;HPM_P2
2023/06/07 00:00:59;;;;;;;9.27;5.68;;;;;;;19.60;69.76;99154.47;4375626;32;33904;-84
2023/06/07 00:03:27;;;;;;;10.55;5.18;;;;;;;19.61;69.67;99154.41;4375299;32;34025;-88
2023/06/07 00:05:56;;;;;;;15.55;6.07;;;;;;;19.47;70.10;99145.97;4375575;32;34315;-82
2023/06/07 00:08:24;;;;;;;9.52;5.82;;;;;;;19.52;69.98;99151.16;4375521;32;33729;-83
2023/06/07 00:10:51;;;;;;;9.90;5.65;;;;;;;19.56;69.89;99150.19;4375032;32;33571;-82
2023/06/07 00:13:19;;;;;;;10.23;5.22;;;;;;;19.66;69.60;99146.44;4375567;32;34194;-84
2023/06/07 00:15:46;;;;;;;11.63;5.87;;;;;;;19.69;69.64;99146.38;4374834;32;34047;-88
2023/06/07 00:18:15;;;;;;;12.50;6.22;;;;;;;19.76;69.33;99147.94;4361938;32;34830;-89
2023/06/07 00:20:45;;;;;;;10.18;5.57;;;;;;;19.97;68.26;99145.69;4375054;32;32914;-82
2023/06/07 00:23:13;;;;;;;10.43;5.12;;;;;;;19.82;68.45;99146.94;4374991;32;33617;-82
2023/06/07 00:25:41;;;;;;;8.40;4.85;;;;;;;19.79;68.26;99149.66;4375383;32;34128;-82
2023/06/07 00:28:09;;;;;;;10.65;5.00;;;;;;;19.89;67.81;99148.53;4375634;32;34095;-83
2023/06/07 00:30:36;;;;;;;9.95;4.85;;;;;;;19.87;67.52;99148.53;4375105;32;34308;-83
2023/06/07 00:33:04;;;;;;;9.02;4.30;;;;;;;19.84;67.72;99150.38;4374696;32;33763;-82
2023/06/07 00:35:32;;;;;;;9.35;4.78;;;;;;;19.83;67.74;99148.66;4374959;32;35089;-83
2023/06/07 00:37:59;;;;;;;8.43;4.40;;;;;;;19.81;67.72;99151.34;4375354;32;34185;-83
2023/06/07 00:40:27;;;;;;;11.85;4.87;;;;;;;19.71;67.93;99141.94;4375379;32;33669;-83
2023/06/07 00:42:54;;;;;;;9.45;4.70;;;;;;;19.71;67.85;99148.97;4361815;32;33071;-82
2023/06/07 00:45:22;;;;;;;8.13;4.22;;;;;;;19.71;67.85;99149.84;4348820;32;34353;-83
2023/06/07 00:47:49;;;;;;;9.93;4.37;;;;;;;19.81;67.30;99148.72;4375167;32;33738;-90
2023/06/07 00:50:17;;;;;;;8.07;4.30;;;;;;;19.86;67.21;99157.34;4361560;32;33574;-83
2023/06/07 00:52:45;;;;;;;7.00;3.92;;;;;;;19.85;67.11;99147.72;4375373;32;34494;-86
2023/06/07 00:55:13;;;;;;;11.07;4.32;;;;;;;19.82;67.36;99142.53;4375277;32;34567;-82
2023/06/07 00:57:41;;;;;;;8.95;4.00;;;;;;;19.68;67.75;99145.50;4361273;32;33602;-85
2023/06/07 01:00:13;;;;;;;8.18;4.47;;;;;;;19.69;67.78;99149.00;4375078;32;33142;-83
2023/06/07 01:02:41;;;;;;;7.87;4.60;;;;;;;19.66;67.96;99146.44;4362060;32;33792;-88
2023/06/07 01:05:09;;;;;;;8.10;4.78;;;;;;;19.64;68.12;99145.63;4360867;32;34102;-87
2023/06/07 01:07:36;;;;;;;11.10;4.53;;;;;;;19.62;68.39;99147.41;4361073;32;33787;-87
2023/06/07 01:10:05;;;;;;;11.60;4.53;;;;;;;19.55;68.62;99145.81;4375208;32;34611;-89
2023/06/07 01:12:34;;;;;;;9.40;4.82;;;;;;;19.51;68.90;99146.78;4361064;32;33743;-83
2023/06/07 01:15:02;;;;;;;8.10;4.78;;;;;;;19.51;68.87;99146.78;4361796;32;33785;-83
2023/06/07 01:17:31;;;;;;;8.63;4.80;;;;;;;19.50;69.02;99145.91;4361821;32;33967;-88
2023/06/07 01:19:59;;;;;;;7.80;4.70;;;;;;;19.62;68.64;99131.63;4361026;32;34104;-90
2023/06/07 01:22:29;;;;;;;9.35;4.32;;;;;;;19.60;68.75;99129.03;4361484;32;32552;-89
2023/06/07 01:25:00;;;;;;;13.98;4.93;;;;;;;19.57;68.87;99125.59;4361613;32;34045;-84
2023/06/07 01:27:30;;;;;;;9.45;4.95;;;;;;;19.50;69.26;99121.38;4360581;32;33622;-86
2023/06/07 01:29:58;;;;;;;12.43;5.35;;;;;;;19.37;69.72;99119.06;4361443;32;33622;-90
2023/06/07 01:32:26;;;;;;;9.48;4.93;;;;;;;19.26;70.03;99126.34;4361253;32;33926;-82
2023/06/07 01:34:54;;;;;;;7.70;5.47;;;;;;;19.34;69.83;99118.25;4360891;32;33950;-87
2023/06/07 01:37:22;;;;;;;8.77;5.00;;;;;;;19.40;69.74;99123.38;4348758;32;34219;-82
2023/06/07 01:39:50;;;;;;;10.35;5.47;;;;;;;19.17;70.70;99116.03;4361078;32;32751;-88
2023/06/07 01:42:18;;;;;;;8.75;5.25;;;;;;;19.25;70.38;99118.50;4360674;32;33661;-85
2023/06/07 01:44:47;;;;;;;9.00;5.53;;;;;;;19.27;70.14;99116.69;4361903;32;33826;-82
2023/06/07 01:47:14;;;;;;;11.23;5.68;;;;;;;19.43;69.55;99118.94;4362618;32;33934;-87
2023/06/07 01:49:42;;;;;;;11.25;5.75;;;;;;;19.29;70.13;99117.53;4362895;32;33657;-83
2023/06/07 01:52:10;;;;;;;8.52;5.18;;;;;;;19.29;70.31;99114.91;4376391;32;33833;-82
2023/06/07 01:54:38;;;;;;;14.50;6.00;;;;;;;19.26;70.36;99115.81;4376056;32;34106;-83
2023/06/07 01:57:17;;;;;;;10.90;5.65;;;;;;;19.34;70.12;99110.38;4375650;32;33997;-82
2023/06/07 01:59:54;;;;;;;12.95;6.10;;;;;;;19.57;69.56;99112.44;4376476;32;33427;-82
2023/06/07 02:02:34;;;;;;;12.37;6.18;;;;;;;19.67;69.04;99111.38;4362607;32;33908;-82
2023/06/07 02:05:04;;;;;;;10.52;6.05;;;;;;;19.42;69.83;99106.66;4362894;32;35623;-83
2023/06/07 02:07:40;;;;;;;10.43;6.47;;;;;;;19.43;69.91;99116.28;4350704;32;33216;-89
2023/06/07 02:10:09;;;;;;;14.38;6.12;;;;;;;19.42;69.95;99116.31;4362459;32;33549;-84
2023/06/07 02:12:37;;;;;;;10.02;6.12;;;;;;;19.44;69.91;99114.53;4376255;32;33965;-85
2023/06/07 02:15:05;;;;;;;10.82;6.12;;;;;;;19.43;69.92;99118.03;4362631;32;34997;-91
2023/06/07 02:17:34;;;;;;;10.57;5.40;;;;;;;19.57;69.36;99115.09;4362525;32;34270;-90
2023/06/07 02:20:03;;;;;;;9.98;5.97;;;;;;;19.38;69.97;99115.53;4375897;32;33548;-84
2023/06/07 02:22:31;;;;;;;12.37;6.35;;;;;;;19.34;70.34;99113.88;4376306;32;33828;-84
2023/06/07 02:24:58;;;;;;;11.02;5.90;;;;;;;19.22;70.77;99113.31;4375959;32;34038;-82
2023/06/07 02:27:28;;;;;;;10.07;5.85;;;;;;;19.15;71.04;99117.81;4375541;32;34767;-87
2023/06/07 02:29:56;;;;;;;13.73;5.85;;;;;;;19.27;70.56;99106.16;4376288;32;33955;-82
2023/06/07 02:32:25;;;;;;;11.32;6.07;;;;;;;19.39;70.18;99105.88;4362299;32;33078;-83
2023/06/07 02:34:52;;;;;;;10.20;5.97;;;;;;;19.18;70.88;99108.13;4376126;32;33580;-86
2023/06/07 02:37:20;;;;;;;9.63;5.75;;;;;;;19.28;70.66;99114.03;4376247;32;34625;-83
2023/06/07 02:39:47;;;;;;;9.98;5.93;;;;;;;19.40;70.26;99108.47;4362422;32;32002;-88
2023/06/07 02:42:15;;;;;;;8.43;5.90;;;;;;;19.38;70.26;99114.66;4361224;32;34081;-91
2023/06/07 02:44:42;;;;;;;9.80;5.78;;;;;;;19.36;70.27;99111.22;4376329;32;33925;-83
2023/06/07 02:47:10;;;;;;;12.52;6.55;;;;;;;19.39;70.20;99106.72;4362393;32;34101;-85
2023/06/07 02:49:37;;;;;;;10.60;5.80;;;;;;;19.52;69.33;99109.09;4375853;32;33903;-83
2023/06/07 02:52:06;;;;;;;11.98;6.25;;;;;;;19.23;70.19;99110.63;4376242;32;33537;-87
2023/06/07 02:54:34;;;;;;;11.98;5.78;;;;;;;19.28;70.05;99110.50;4376303;32;34235;-82
2023/06/07 02:57:02;;;;;;;10.93;5.78;;;;;;;19.64;68.54;99103.53;4375819;32;33453;-89
2023/06/07 02:59:30;;;;;;;12.00;5.30;;;;;;;19.51;68.60;99104.69;4375806;32;33027;-86
2023/06/07 03:01:58;;;;;;;11.40;5.62;;;;;;;19.37;69.18;99113.81;4361982;32;33896;-84
2023/06/07 03:04:28;;;;;;;14.15;6.00;;;;;;;19.43;69.09;99115.41;4376123;32;34619;-85
2023/06/07 03:06:57;;;;;;;9.30;5.65;;;;;;;19.49;68.82;99111.78;4362837;32;34722;-84
2023/06/07 03:09:24;;;;;;;14.07;5.50;;;;;;;19.71;67.91;99107.75;4362166;32;33516;-86
2023/06/07 03:11:52;;;;;;;7.40;5.55;;;;;;;19.62;67.99;99107.97;4376067;32;33786;-88
2023/06/07 03:14:20;;;;;;;11.50;5.75;;;;;;;19.73;67.88;99108.56;4361913;32;34559;-89
2023/06/07 03:16:48;;;;;;;12.35;6.20;;;;;;;19.48;68.68;99113.56;4362159;32;34206;-82
2023/06/07 03:19:16;;;;;;;10.57;5.95;;;;;;;19.49;68.74;99112.62;4375684;32;33575;-84
2023/06/07 03:21:44;;;;;;;9.32;5.85;;;;;;;19.54;68.41;99109.87;4376061;32;34995;-83
2023/06/07 03:24:12;;;;;;;10.90;5.90;;;;;;;19.53;68.36;99118.69;4376040;32;34462;-83
2023/06/07 03:26:40;;;;;;;8.32;5.62;;;;;;;19.47;68.47;99108.31;4362711;32;33789;-85
2023/06/07 03:29:09;;;;;;;14.73;5.50;;;;;;;19.55;68.26;99106.38;4375915;32;33497;-82
2023/06/07 03:31:37;;;;;;;13.23;5.75;;;;;;;19.56;68.17;99118.63;4361624;32;33616;-85
2023/06/07 03:34:05;;;;;;;13.02;6.25;;;;;;;19.52;68.25;99116.97;4349873;32;33908;-89
2023/06/07 03:36:35;;;;;;;9.82;5.85;;;;;;;19.50;68.31;99113.50;4376278;32;33609;-85
2023/06/07 03:39:03;;;;;;;13.02;6.22;;;;;;;19.50;68.37;99118.75;4375986;32;33307;-83
2023/06/07 03:41:31;;;;;;;13.15;6.45;;;;;;;19.45;68.53;99122.38;4375666;32;34065;-91
2023/06/07 03:43:59;;;;;;;10.93;6.30;;;;;;;19.51;68.49;99120.47;4375962;32;33880;-86
2023/06/07 03:46:27;;;;;;;9.27;5.70;;;;;;;19.46;68.97;99120.59;4375218;32;34385;-89
2023/06/07 03:48:54;;;;;;;10.88;6.15;;;;;;;19.52;68.99;99125.72;4375081;32;33891;-83
2023/06/07 03:51:23;;;;;;;11.18;5.22;;;;;;;19.56;68.92;99124.75;4375896;32;33967;-83
2023/06/07 03:53:52;;;;;;;11.88;6.18;;;;;;;19.69;68.60;99127.94;4361978;32;34057;-90
2023/06/07 03:56:21;;;;;;;11.07;5.85;;;;;;;19.66;68.92;99133.28;4375669;32;33961;-83
2023/06/07 03:58:49;;;;;;;10.77;6.70;;;;;;;19.70;69.27;99121.81;4361515;32;32709;-82
2023/06/07 04:01:16;;;;;;;12.20;6.43;;;;;;;19.62;69.29;99129.00;4375428;32;33791;-83
2023/06/07 04:03:45;;;;;;;9.30;6.47;;;;;;;19.61;69.66;99128.09;4374896;32;35007;-84
2023/06/07 04:06:14;;;;;;;14.15;6.30;;;;;;;19.73;69.40;99120.84;4374896;32;32700;-83
2023/06/07 04:08:44;;;;;;;14.05;6.55;;;;;;;19.78;69.43;99122.47;4375338;32;33284;-83
2023/06/07 04:11:12;;;;;;;11.63;7.20;;;;;;;19.81;69.64;99124.16;4361989;32;34198;-83
2023/06/07 04:13:42;;;;;;;15.98;7.25;;;;;;;19.96;69.27;99130.78;4362094;32;34008;-83
2023/06/07 04:16:09;;;;;;;16.90;6.95;;;;;;;19.93;69.50;99124.72;4375429;32;33818;-90
2023/06/07 04:18:37;;;;;;;14.95;7.03;;;;;;;19.99;69.30;99126.31;4375721;32;36199;-82
2023/06/07 04:21:05;;;;;;;11.48;7.20;;;;;;;19.98;69.56;99129.84;4374883;32;33971;-88
2023/06/07 04:23:33;;;;;;;13.13;6.80;;;;;;;19.93;69.94;99122.09;4375513;32;34300;-87
2023/06/07 04:26:05;;;;;;;13.77;6.85;;;;;;;20.03;69.79;99135.84;4362349;32;33886;-85
2023/06/07 04:28:32;;;;;;;12.82;7.93;;;;;;;19.83;70.68;99132.87;4375533;32;34760;-88
2023/06/07 04:31:01;;;;;;;10.07;6.95;;;;;;;20.01;70.16;99132.41;4374865;32;33959;-83
2023/06/07 04:33:28;;;;;;;13.80;7.75;;;;;;;19.85;69.97;99129.31;4375678;32;34496;-82
2023/06/07 04:35:58;;;;;;;10.40;7.32;;;;;;;19.84;69.77;99127.56;4374889;32;33822;-83
2023/06/07 04:38:29;;;;;;;10.48;7.40;;;;;;;19.79;69.92;99124.19;4375706;32;33899;-87
2023/06/07 04:41:00;;;;;;;13.30;7.22;;;;;;;19.93;69.03;99127.34;4375172;32;34816;-87
2023/06/07 04:43:35;;;;;;;13.20;7.78;;;;;;;19.42;69.68;99129.47;4375367;32;34061;-83
2023/06/07 04:46:03;;;;;;;13.70;8.05;;;;;;;19.67;68.93;99125.37;4375192;32;34667;-82
2023/06/07 04:48:32;;;;;;;13.13;8.05;;;;;;;19.52;69.96;99123.09;4374919;32;34073;-83
2023/06/07 04:51:05;;;;;;;11.85;8.57;;;;;;;19.64;69.41;99128.06;4375046;32;34926;-83
2023/06/07 04:53:36;;;;;;;12.93;7.90;;;;;;;19.53;70.10;99135.31;4375349;32;35014;-89
2023/06/07 04:56:06;;;;;;;12.02;8.25;;;;;;;19.70;69.83;99132.34;4371457;32;34135;-82
2023/06/07 04:58:33;;;;;;;12.23;8.35;;;;;;;19.69;70.11;99141.09;4375234;32;34361;-84
2023/06/07 05:01:03;;;;;;;9.80;7.65;;;;;;;19.96;69.60;99138.69;4361172;32;34681;-91
2023/06/07 05:03:31;;;;;;;12.73;7.57;;;;;;;20.05;69.66;99143.72;4374448;32;34943;-89
2023/06/07 05:06:11;;;;;;;12.52;7.53;;;;;;;20.03;70.00;99135.00;4375378;32;34692;-87
2023/06/07 05:08:39;;;;;;;8.77;6.22;;;;;;;20.17;68.65;99140.75;4374395;32;33386;-92
2023/06/07 05:11:07;;;;;;;12.95;5.80;;;;;;;19.97;66.89;99141.28;4375500;32;34061;-88
2023/06/07 05:13:34;;;;;;;10.07;6.00;;;;;;;19.69;66.93;99141.09;4374460;32;35183;-86
2023/06/07 05:16:02;;;;;;;10.73;6.43;;;;;;;19.44;65.52;99141.69;4374157;32;33552;-91
2023/06/07 05:18:30;;;;;;;13.50;6.40;;;;;;;19.49;66.50;99136.31;4373970;32;33358;-85
2023/06/07 05:20:58;;;;;;;11.32;6.20;;;;;;;19.31;68.59;99142.00;4372335;32;33817;-83
2023/06/07 05:23:26;;;;;;;11.80;6.28;;;;;;;19.63;68.64;99141.28;4375015;32;34698;-90
2023/06/07 05:25:55;;;;;;;10.10;7.15;;;;;;;19.49;68.31;99132.81;4375338;32;34549;-83
2023/06/07 05:28:23;;;;;;;9.38;6.28;;;;;;;19.75;67.61;99135.69;4374369;32;33582;-89
2023/06/07 05:30:53;;;;;;;13.40;6.37;;;;;;;19.81;66.59;99134.66;4360606;32;34295;-82
2023/06/07 05:33:21;;;;;;;10.38;6.62;;;;;;;20.04;66.24;99134.97;4373877;32;35017;-90
2023/06/07 05:35:48;;;;;;;13.45;6.45;;;;;;;20.04;67.54;99137.59;4374040;32;34397;-90
2023/06/07 05:38:17;;;;;;;11.90;7.22;;;;;;;20.17;67.90;99143.38;4373821;32;33996;-89
2023/06/07 05:40:44;;;;;;;10.20;5.78;;;;;;;20.15;68.38;99134.66;4373489;32;33647;-83
2023/06/07 05:43:12;;;;;;;11.50;6.12;;;;;;;20.21;66.31;99142.41;4373500;32;34742;-87
2023/06/07 05:45:40;;;;;;;10.35;6.65;;;;;;;19.99;65.60;99139.47;4373731;32;34354;-81
2023/06/07 05:48:08;;;;;;;8.88;5.85;;;;;;;19.49;67.02;99140.69;4370658;32;33348;-84
2023/06/07 05:50:36;;;;;;;11.38;7.25;;;;;;;19.14;68.78;99152.91;4373613;32;34489;-84
2023/06/07 05:53:03;;;;;;;9.35;6.28;;;;;;;19.33;69.30;99148.94;4374619;32;34094;-84
2023/06/07 05:55:31;;;;;;;11.40;7.15;;;;;;;19.37;70.31;99150.59;4533532;27;34656;-82
2023/06/07 05:58:00;;;;;;;10.52;6.97;;;;;;;19.56;70.65;99151.03;4360056;32;33918;-86
2023/06/07 06:00:28;;;;;;;11.45;6.97;;;;;;;19.90;68.01;99144.97;4374576;32;34096;-84
2023/06/07 06:02:56;;;;;;;11.65;7.53;;;;;;;19.50;70.26;99152.94;4374473;32;35078;-83
2023/06/07 06:05:27;;;;;;;11.02;6.95;;;;;;;19.46;71.23;99154.78;4374589;32;34184;-86
2023/06/07 06:07:59;;;;;;;14.10;7.20;;;;;;;19.38;69.42;99152.31;4374257;32;34234;-83
2023/06/07 06:10:26;;;;;;;10.65;6.70;;;;;;;19.63;69.07;99151.78;4374025;32;33564;-83
2023/06/07 06:12:55;;;;;;;11.77;6.37;;;;;;;19.52;69.02;99156.41;4374259;32;35136;-83
2023/06/07 06:15:23;;;;;;;9.88;6.95;;;;;;;19.31;69.52;99156.00;4361059;32;33942;-85
2023/06/07 06:17:54;;;;;;;10.75;7.00;;;;;;;19.17;68.96;99164.22;4360651;32;33372;-83
2023/06/07 06:20:22;;;;;;;12.13;6.97;;;;;;;19.61;68.96;99153.53;4374232;32;33776;-86
2023/06/07 06:22:50;;;;;;;11.30;7.10;;;;;;;19.67;70.11;99166.59;4360820;32;34042;-84
2023/06/07 07:23:05;;;;;;;9.98;7.05;;;;;;;20.27;66.18;99179.09;4345433;33;32697;-85
2023/06/07 07:25:33;;;;;;;14.63;8.02;;;;;;;20.10;66.19;99178.66;4345527;33;34632;-88
2023/06/07 07:28:00;;;;;;;13.55;7.25;;;;;;;19.75;66.61;99177.78;4346235;33;34607;-94
2023/06/07 07:30:28;;;;;;;13.68;7.22;;;;;;;19.96;65.91;99176.38;4347191;33;34403;-89
2023/06/07 07:32:58;;;;;;;10.68;7.05;;;;;;;19.96;66.55;99191.31;4347025;33;33869;-91
2023/06/07 07:35:26;;;;;;;13.88;8.18;;;;;;;19.75;65.49;99188.31;4346550;33;34405;-83
2023/06/07 07:37:54;;;;;;;10.50;7.20;;;;;;;19.86;65.95;99185.44;4346563;33;33806;-93
2023/06/07 07:40:21;;;;;;;9.45;6.60;;;;;;;20.02;65.64;99191.16;4345451;33;32148;-94
2023/06/07 07:42:49;;;;;;;12.20;6.65;;;;;;;20.14;64.88;99182.94;4346153;33;34795;-87
2023/06/07 07:45:16;;;;;;;9.95;6.68;;;;;;;20.31;64.81;99182.53;4346201;33;34836;-85
2023/06/07 07:47:45;;;;;;;14.65;7.60;;;;;;;20.50;64.65;99188.19;4345372;33;34038;-84
2023/06/07 07:50:12;;;;;;;9.90;6.75;;;;;;;20.57;64.75;99189.72;4346905;33;33749;-86
2023/06/07 07:52:40;;;;;;;11.25;7.75;;;;;;;20.65;64.71;99190.41;4346575;33;34467;-92
2023/06/07 07:55:07;;;;;;;12.25;7.45;;;;;;;20.63;63.05;99189.56;4345357;33;34116;-90
2023/06/07 07:57:35;;;;;;;12.55;7.45;;;;;;;20.60;64.65;99189.66;4346079;33;33794;-89
2023/06/07 08:00:05;;;;;;;13.62;7.15;;;;;;;20.89;62.39;99194.09;4346697;33;33399;-83
2023/06/07 08:02:38;;;;;;;11.90;7.18;;;;;;;20.46;63.47;99191.78;4334022;33;34794;-82
2023/06/07 08:05:07;;;;;;;16.50;7.75;;;;;;;20.82;63.32;99196.03;4346215;33;33598;-84
2023/06/07 08:07:35;;;;;;;11.82;7.47;;;;;;;20.50;64.50;99198.72;4345141;33;33992;-83
2023/06/07 08:10:04;;;;;;;13.23;8.20;;;;;;;20.44;63.79;99196.22;4346142;33;33448;-83
2023/06/07 08:12:32;;;;;;;12.95;8.52;;;;;;;20.09;64.76;99203.28;4345965;33;33663;-84
2023/06/07 08:15:02;;;;;;;12.93;8.32;;;;;;;19.95;65.73;99208.00;4346485;33;34922;-87
2023/06/07 08:17:30;;;;;;;12.30;8.93;;;;;;;20.27;66.71;99208.06;4345014;33;34206;-87
2023/06/07 08:19:58;;;;;;;15.60;8.80;;;;;;;20.69;65.72;99205.22;4346063;33;33378;-85
2023/06/07 08:22:26;;;;;;;15.88;9.95;;;;;;;20.55;65.13;99199.47;4357247;32;34714;-85
2023/06/07 08:24:53;;;;;;;19.95;9.80;;;;;;;19.73;66.60;99200.63;4361497;32;35560;-86
2023/06/07 08:27:21;;;;;;;17.42;9.30;;;;;;;20.32;66.20;99195.63;4347380;32;33932;-90
2023/06/07 08:29:48;;;;;;;14.85;9.45;;;;;;;20.65;65.12;99191.25;4347739;32;33504;-92
2023/06/07 08:32:16;;;;;;;13.75;9.32;;;;;;;20.76;65.69;99198.88;4361380;32;34039;-92
2023/06/07 08:34:43;;;;;;;15.25;9.63;;;;;;;21.02;64.38;99195.47;4347630;32;33022;-91
2023/06/07 08:37:11;;;;;;;14.00;9.00;;;;;;;20.93;65.35;99200.16;4361589;32;33784;-94
2023/06/07 08:39:38;;;;;;;18.35;9.65;;;;;;;21.17;63.67;99199.41;4361415;32;33045;-83
2023/06/07 08:42:06;;;;;;;14.10;9.13;;;;;;;21.21;64.10;99193.16;4361020;32;33540;-89
2023/06/07 08:44:34;;;;;;;18.30;9.77;;;;;;;20.77;64.25;99197.97;4361599;32;34216;-82
2023/06/07 08:47:02;;;;;;;14.43;8.88;;;;;;;21.21;64.11;99182.59;4361025;32;33827;-82
2023/06/07 08:49:36;;;;;;;14.55;9.00;;;;;;;21.23;64.81;99188.72;4347531;32;33719;-92
2023/06/07 08:52:05;;;;;;;12.27;9.77;;;;;;;20.48;64.79;99190.81;4347998;32;34424;-92
2023/06/07 08:54:45;;;;;;;16.40;9.50;;;;;;;20.75;64.28;99183.94;4348176;32;34869;-83
2023/06/07 08:57:17;;;;;;;16.40;9.02;;;;;;;20.71;66.23;99190.22;4347733;32;34517;-84
2023/06/07 08:59:46;;;;;;;13.75;8.55;;;;;;;21.02;63.54;99181.44;4347837;32;34153;-89
2023/06/07 09:02:14;;;;;;;13.20;9.23;;;;;;;21.34;63.76;99178.72;4360082;32;33491;-85
2023/06/07 09:04:42;;;;;;;12.82;8.32;;;;;;;21.43;64.87;99182.00;4335452;32;35064;-83
2023/06/07 09:07:11;;;;;;;14.60;8.55;;;;;;;21.71;62.18;99182.00;4347847;32;33615;-84
2023/06/07 09:09:41;;;;;;;14.45;8.95;;;;;;;21.66;63.18;99186.53;4360911;32;33191;-87
2023/06/07 09:12:10;;;;;;;15.88;9.48;;;;;;;21.79;61.10;99186.09;4360950;32;34876;-83
2023/06/07 09:14:38;;;;;;;10.60;7.82;;;;;;;21.73;61.29;99185.44;4360897;32;33831;-92
2023/06/07 09:17:06;;;;;;;14.00;8.15;;;;;;;21.81;62.88;99186.91;4361087;32;34289;-95
2023/06/07 09:19:38;;;;;;;13.02;8.27;;;;;;;21.67;63.41;99193.53;4360825;32;33482;-83
2023/06/07 09:22:08;;;;;;;14.77;8.55;;;;;;;21.60;61.51;99187.59;4346776;32;34635;-85
2023/06/07 09:24:36;;;;;;;15.75;8.27;;;;;;;21.55;62.47;99182.44;4347145;32;34748;-91
2023/06/07 09:27:04;;;;;;;13.00;8.07;;;;;;;21.54;62.63;99186.00;4360607;32;34073;-84
2023/06/07 09:29:40;;;;;;;12.63;8.05;;;;;;;22.20;60.69;99183.91;4360208;32;34157;-83
2023/06/07 09:32:26;;;;;;;12.70;7.72;;;;;;;21.90;62.31;99192.81;4334777;32;33265;-96
2023/06/07 09:34:57;;;;;;;;;;;;;;;22.28;60.98;99189.78;4360715;32;34109;-86
2023/06/07 09:37:40;;;;;;;16.65;8.80;;;;;;;22.16;60.53;99190.19;4347212;32;34010;-84
2023/06/07 09:40:08;;;;;;;11.20;8.30;;;;;;;21.91;61.15;99199.81;4347317;32;34041;-84
2023/06/07 09:42:35;;;;;;;11.15;8.13;;;;;;;22.10;60.22;99185.06;4360261;32;33636;-83
2023/06/07 09:45:14;;;;;;;14.63;8.05;;;;;;;22.02;60.06;99189.75;4346526;32;32948;-83
2023/06/07 09:47:42;;;;;;;11.95;7.72;;;;;;;22.06;61.48;99189.59;4360234;32;34025;-84
2023/06/07 09:50:12;;;;;;;12.55;8.15;;;;;;;21.90;60.37;99190.19;4360060;32;34138;-85
2023/06/07 09:52:40;;;;;;;14.87;8.70;;;;;;;21.99;60.69;99195.13;4346400;32;34801;-84
2023/06/07 09:55:09;;;;;;;11.88;8.90;;;;;;;21.83;61.72;99198.28;4346493;32;34122;-95
2023/06/07 09:57:39;;;;;;;12.48;7.80;;;;;;;21.60;63.42;99190.25;4346541;32;33814;-95
2023/06/07 10:00:13;;;;;;;11.80;8.38;;;;;;;21.95;63.09;99191.72;4360514;32;33069;-86
2023/06/07 10:02:45;;;;;;;14.32;9.23;;;;;;;21.89;62.56;99193.69;4347520;32;33585;-84
2023/06/07 10:05:14;;;;;;;14.45;9.65;;;;;;;21.99;61.73;99182.78;4360419;32;34987;-84
2023/06/07 10:07:44;;;;;;;13.60;9.82;;;;;;;21.47;61.99;99183.63;4348702;32;34218;-83
2023/06/07 10:10:14;;;;;;;11.95;8.95;;;;;;;21.44;62.88;99183.69;4362147;32;34229;-83
2023/06/07 10:12:46;;;;;;;12.32;9.27;;;;;;;21.54;63.72;99180.72;4362269;32;33991;-84
2023/06/07 10:15:24;;;;;;;15.27;9.85;;;;;;;21.55;63.89;99181.59;4348719;32;34546;-84
2023/06/07 10:18:08;;;;;;;13.65;9.32;;;;;;;21.62;64.10;99181.34;4361834;32;33387;-84
2023/06/07 10:20:41;;;;;;;12.88;7.97;;;;;;;22.09;62.93;99178.09;4348170;32;34295;-83
2023/06/07 10:23:16;;;;;;;12.07;8.18;;;;;;;22.13;61.24;99171.78;4348716;32;33948;-83
2023/06/07 10:25:53;;;;;;;13.68;9.48;;;;;;;21.82;61.80;99180.72;4361965;32;34267;-84
2023/06/07 10:28:49;;;;;;;22.35;10.95;;;;;;;21.56;62.37;99173.66;4348521;32;33831;-84
2023/06/07 10:31:18;;;;;;;12.45;9.35;;;;;;;21.34;63.55;99185.78;4362160;32;34174;-84
2023/06/07 10:33:48;;;;;;;12.98;9.57;;;;;;;21.30;62.94;99174.44;4348561;32;33846;-85
2023/06/07 10:36:16;;;;;;;13.48;9.60;;;;;;;21.36;62.70;99182.16;4348789;32;34190;-84
2023/06/07 10:38:43;;;;;;;15.43;9.70;;;;;;;21.62;63.09;99168.16;4348960;32;34587;-84
2023/06/07 10:41:11;;;;;;;11.77;8.95;;;;;;;21.98;62.34;99177.59;4348687;32;33243;-94
2023/06/07 10:43:46;;;;;;;12.43;9.85;;;;;;;22.24;61.04;99172.31;4362153;32;34392;-84
2023/06/07 10:46:25;;;;;;;13.48;9.93;;;;;;;22.10;61.82;99174.50;4349428;32;35119;-87
2023/06/07 10:48:55;;;;;;;13.82;10.40;;;;;;;21.94;61.54;99179.44;4361963;32;33633;-83
2023/06/07 10:51:41;;;;;;;14.02;9.98;;;;;;;21.87;60.84;99173.50;4361930;32;33161;-83
2023/06/07 10:54:08;;;;;;;17.75;11.27;;;;;;;22.55;59.49;99171.22;4348266;32;34831;-91
2023/06/07 10:56:37;;;;;;;15.93;10.32;;;;;;;22.75;59.58;99174.00;4361787;32;34642;-91
2023/06/07 10:59:20;;;;;;;16.33;11.10;;;;;;;22.69;59.67;99174.22;4362161;32;34820;-84
2023/06/07 11:01:53;;;;;;;14.25;10.75;;;;;;;22.95;56.68;99164.47;4348306;32;33767;-83
2023/06/07 11:04:37;;;;;;;16.62;10.60;;;;;;;23.04;57.31;99158.88;4348913;32;33648;-84
2023/06/07 11:07:28;;;;;;;15.50;10.20;;;;;;;23.05;57.65;99171.16;4361956;32;33712;-84
2023/06/07 11:10:05;;;;;;;12.50;10.10;;;;;;;23.23;57.20;99167.81;4348391;32;34100;-84
2023/06/07 11:12:44;;;;;;;12.80;9.95;;;;;;;23.16;56.75;99168.09;4361912;32;33028;-84
2023/06/07 11:15:22;;;;;;;15.63;10.00;;;;;;;23.47;55.54;99159.81;4362104;32;33478;-84
2023/06/07 11:17:51;;;;;;;17.67;10.35;;;;;;;23.04;56.51;99174.72;4360767;32;33918;-94
2023/06/07 11:20:37;;;;;;;16.37;9.35;;;;;;;22.86;57.99;99172.75;4361935;32;33822;-84
2023/06/07 11:23:39;;;;;;;14.70;9.38;;;;;;;23.17;57.49;99170.69;4362213;32;35137;-84
2023/06/07 11:26:10;;;;;;;13.10;10.82;;;;;;;22.88;56.88;99169.13;4317715;32;34616;-85
2023/06/07 11:28:40;;;;;;;14.38;10.60;;;;;;;22.92;56.49;99167.22;4348675;32;34453;-84
2023/06/07 11:31:10;;;;;;;16.23;10.95;;;;;;;23.14;57.86;99165.50;4362076;32;33663;-85
2023/06/07 11:33:40;;;;;;;15.50;10.60;;;;;;;23.21;59.28;99172.28;4348772;32;33560;-83
2023/06/07 11:36:09;;;;;;;12.20;9.70;;;;;;;23.62;57.65;99164.50;4361890;32;33543;-92
2023/06/07 11:38:37;;;;;;;13.45;10.57;;;;;;;23.68;54.66;99161.66;4362624;32;34186;-84
2023/06/07 11:41:06;;;;;;;12.15;9.60;;;;;;;23.73;55.16;99158.81;4348222;32;33949;-91
2023/06/07 11:43:34;;;;;;;14.00;9.50;;;;;;;23.40;55.97;99168.91;4348185;32;33648;-85
2023/06/07 11:46:01;;;;;;;13.57;10.10;;;;;;;23.31;56.33;99168.38;4361400;32;33034;-83
2023/06/07 11:48:29;;;;;;;15.32;10.13;;;;;;;22.80;58.25;99172.03;4347873;32;33855;-84
2023/06/07 11:50:59;;;;;;;12.90;10.50;;;;;;;22.94;58.05;99158.34;4361618;32;34788;-83
2023/06/07 11:53:30;;;;;;;13.77;10.55;;;;;;;22.42;57.78;99162.00;4348423;32;34533;-83
2023/06/07 11:56:00;;;;;;;13.55;9.50;;;;;;;22.56;57.60;99152.66;4361558;32;33683;-91
2023/06/07 11:58:28;;;;;;;12.32;9.75;;;;;;;23.14;59.26;99154.06;4349223;32;32748;-84
2023/06/07 12:00:57;;;;;;;13.20;9.40;;;;;;;23.34;56.36;99148.03;4335460;32;33143;-89
2023/06/07 12:03:25;;;;;;;15.27;9.95;;;;;;;23.62;56.17;99143.31;4348270;32;33895;-90
2023/06/07 12:05:53;;;;;;;13.23;9.57;;;;;;;23.74;53.92;99140.19;4347873;32;33945;-84
2023/06/07 12:08:22;;;;;;;11.75;9.95;;;;;;;23.75;55.43;99138.41;4335279;32;32847;-84
2023/06/07 12:10:54;;;;;;;12.45;9.90;;;;;;;23.75;55.90;99136.66;4348235;32;33871;-84
2023/06/07 12:13:23;;;;;;;13.32;10.02;;;;;;;24.02;53.65;99131.97;4348182;32;33282;-83
2023/06/07 12:15:58;;;;;;;16.25;9.95;;;;;;;23.86;56.50;99127.38;4335391;32;34737;-84
2023/06/07 12:18:27;;;;;;;11.87;9.50;;;;;;;24.05;54.13;99130.97;4361480;32;34973;-84
2023/06/07 12:21:03;;;;;;;13.52;10.48;;;;;;;23.84;55.74;99116.00;4361253;32;33731;-84
2023/06/07 12:23:31;;;;;;;11.57;9.07;;;;;;;23.84;55.26;99113.34;4361589;32;33580;-96
2023/06/07 12:26:10;;;;;;;14.07;9.65;;;;;;;24.06;54.96;99108.87;4348393;32;34685;-83
2023/06/07 12:28:39;;;;;;;17.12;10.43;;;;;;;24.18;54.50;99100.38;4347833;32;35016;-96
2023/06/07 12:31:15;;;;;;;12.15;8.98;;;;;;;23.88;55.36;99097.28;4348587;32;33688;-84
2023/06/07 12:34:06;;;;;;;12.77;9.90;;;;;;;24.12;55.53;99098.00;4361509;32;33509;-85
2023/06/07 12:36:36;;;;;;;13.60;9.48;;;;;;;24.14;54.00;99098.81;4362056;32;33432;-95